Time;durP1;ratioP1;P1;durP2;ratioP2;P2;SDS_P1;SDS_P2;PMS_P1;PMS_P2;Temp;Humidity;BMP_temperature;BMP_pressure;BME280_temperature;BME280_humidity;BME280_pressure;Samples;Min_cycle;Max_cycle;Signal;HPM_P1;HPM_P2
2022/03/26 00:00:46;;;;;;;17.67;12.10;;;9.00;50.00;;;;;;5018565;28;20033;-80
2022/03/26 00:03:14;;;;;;;17.48;10.90;;;8.80;50.50;;;;;;5018454;28;20046;-80
2022/03/26 00:05:41;;;;;;;18.05;12.52;;;8.60;51.40;;;;;;5028064;28;20048;-80
2022/03/26 00:08:07;;;;;;;15.70;12.70;;;8.40;52.10;;;;;;5016078;28;20036;-80
2022/03/26 00:10:34;;;;;;;15.43;13.13;;;8.40;53.00;;;;;;5023189;28;20066;-80
2022/03/26 00:13:00;;;;;;;16.42;11.38;;;7.70;54.50;;;;;;5026090;28;20037;-80
2022/03/26 00:15:26;;;;;;;22.70;12.77;;;7.20;55.50;;;;;;5015437;28;20026;-81
2022/03/26 00:17:52;;;;;;;15.95;12.75;;;6.90;55.60;;;;;;5024578;28;20045;-80
2022/03/26 00:20:19;;;;;;;17.02;12.07;;;6.90;55.80;;;;;;5026950;28;20052;-80
2022/03/26 00:22:45;;;;;;;21.23;14.05;;;6.80;55.80;;;;;;5027467;28;20037;-80
2022/03/26 00:25:13;;;;;;;19.95;11.73;;;6.70;56.20;;;;;;5030740;28;20033;-80
2022/03/26 00:27:39;;;;;;;16.40;13.20;;;6.60;57.00;;;;;;5012979;28;20037;-79
2022/03/26 00:30:06;;;;;;;18.02;13.07;;;6.40;57.60;;;;;;5037618;28;20048;-80
2022/03/26 00:32:33;;;;;;;17.92;12.50;;;6.30;58.30;;;;;;5027676;28;20037;-80
2022/03/26 00:35:00;;;;;;;23.35;14.63;;;6.10;58.90;;;;;;5029856;28;20097;-79
2022/03/26 00:37:26;;;;;;;16.65;13.35;;;6.10;59.10;;;;;;5026900;28;20021;-80
2022/03/26 00:39:53;;;;;;;22.08;15.05;;;6.00;59.50;;;;;;5019615;28;20367;-80
2022/03/26 00:42:20;;;;;;;18.30;13.98;;;5.80;59.50;;;;;;5012245;28;20033;-80
2022/03/26 00:44:46;;;;;;;17.00;14.13;;;5.60;59.90;;;;;;5020516;28;20395;-80
2022/03/26 00:47:12;;;;;;;26.25;12.57;;;5.50;60.30;;;;;;5012823;28;20522;-80
2022/03/26 00:49:38;;;;;;;18.63;13.50;;;5.40;60.10;;;;;;5027115;28;20034;-80
2022/03/26 00:52:05;;;;;;;18.85;12.05;;;5.40;60.50;;;;;;5026942;28;20058;-79
2022/03/26 00:54:32;;;;;;;12.88;11.52;;;5.30;60.80;;;;;;5023576;28;20129;-79
2022/03/26 00:56:59;;;;;;;20.20;12.68;;;5.20;60.90;;;;;;5025580;28;20029;-80
2022/03/26 00:59:25;;;;;;;16.63;13.43;;;5.10;61.60;;;;;;5025786;28;20030;-80
2022/03/26 01:01:51;;;;;;;18.15;15.13;;;5.30;60.90;;;;;;5024154;28;20033;-80
2022/03/26 01:04:17;;;;;;;28.55;18.83;;;5.30;61.10;;;;;;5023183;28;20029;-80
2022/03/26 01:06:44;;;;;;;18.92;16.25;;;5.20;61.40;;;;;;5027151;28;20036;-80
2022/03/26 01:09:10;;;;;;;25.08;16.25;;;5.20;61.70;;;;;;5021299;28;20458;-80
2022/03/26 01:11:37;;;;;;;18.17;14.82;;;5.10;62.40;;;;;;5015856;28;20035;-80
2022/03/26 01:14:03;;;;;;;18.33;15.48;;;5.10;62.10;;;;;;5028517;28;20399;-80
2022/03/26 01:16:30;;;;;;;22.88;15.07;;;5.00;62.70;;;;;;5027474;28;20053;-80
2022/03/26 01:18:57;;;;;;;13.60;12.38;;;4.90;62.70;;;;;;5025856;28;20044;-79
2022/03/26 01:21:23;;;;;;;18.45;12.50;;;4.90;62.70;;;;;;5020378;28;20088;-80
2022/03/26 01:23:50;;;;;;;13.90;12.45;;;4.80;62.60;;;;;;5014325;28;20049;-80
2022/03/26 01:26:18;;;;;;;19.23;13.40;;;4.80;63.50;;;;;;5036159;28;20042;-80
2022/03/26 01:28:45;;;;;;;19.73;12.80;;;4.70;64.00;;;;;;5024912;28;20033;-80
2022/03/26 01:31:11;;;;;;;14.93;11.18;;;4.70;63.20;;;;;;5020804;28;20465;-80
2022/03/26 01:33:38;;;;;;;22.00;12.80;;;4.70;63.50;;;;;;5015676;28;20034;-80
2022/03/26 01:36:04;;;;;;;15.05;11.63;;;4.70;63.80;;;;;;5015502;28;20070;-79
2022/03/26 01:38:31;;;;;;;15.40;11.85;;;4.60;64.20;;;;;;5021964;28;20038;-79
2022/03/26 01:40:57;;;;;;;19.02;12.57;;;4.50;64.00;;;;;;5034554;28;20037;-79
2022/03/26 01:43:23;;;;;;;13.50;11.98;;;4.50;63.80;;;;;;5034257;28;20044;-78
2022/03/26 01:45:49;;;;;;;14.77;11.52;;;4.50;64.00;;;;;;5028952;28;20057;-78
2022/03/26 01:48:15;;;;;;;15.55;13.02;;;4.40;64.60;;;;;;5030420;28;20475;-80
2022/03/26 01:50:42;;;;;;;18.65;12.10;;;4.30;65.30;;;;;;5027917;28;20482;-80
2022/03/26 01:53:08;;;;;;;18.40;13.52;;;4.20;65.70;;;;;;5028090;28;20050;-80
2022/03/26 01:55:35;;;;;;;19.50;12.88;;;4.10;66.00;;;;;;5033482;28;20037;-80
2022/03/26 01:58:02;;;;;;;13.82;11.60;;;4.10;65.30;;;;;;5018205;28;20057;-80
2022/03/26 02:00:29;;;;;;;17.13;12.88;;;4.30;64.20;;;;;;5040389;28;20049;-80
2022/03/26 02:02:55;;;;;;;23.90;12.75;;;4.60;62.70;;;;;;5026264;28;20041;-80
2022/03/26 02:05:21;;;;;;;14.73;10.52;;;4.80;61.30;;;;;;5027639;28;20036;-80
2022/03/26 02:07:49;;;;;;;15.68;11.65;;;5.10;60.40;;;;;;5026716;28;20102;-80
2022/03/26 02:10:18;;;;;;;18.88;13.13;;;5.20;60.10;;;;;;5023269;28;20056;-80
2022/03/26 02:12:47;;;;;;;18.08;12.48;;;5.10;60.10;;;;;;5030394;28;20037;-80
2022/03/26 02:15:15;;;;;;;19.60;11.75;;;5.00;60.20;;;;;;5025498;28;20030;-80
2022/03/26 02:17:42;;;;;;;13.95;12.38;;;4.90;61.00;;;;;;5028792;28;20061;-78
2022/03/26 02:20:10;;;;;;;13.95;11.25;;;4.80;61.60;;;;;;5027511;28;20041;-80
2022/03/26 02:22:38;;;;;;;17.48;11.57;;;4.60;62.00;;;;;;5031189;28;20045;-80
2022/03/26 02:25:06;;;;;;;19.63;13.10;;;4.60;62.30;;;;;;5032372;28;20479;-80
2022/03/26 02:27:33;;;;;;;16.05;11.18;;;4.40;62.60;;;;;;5019109;28;20030;-79
2022/03/26 02:30:00;;;;;;;22.05;11.35;;;4.30;63.00;;;;;;5020558;28;20497;-80
2022/03/26 02:32:28;;;;;;;13.60;10.48;;;4.30;63.30;;;;;;5031531;28;20041;-80
2022/03/26 02:34:55;;;;;;;13.10;11.00;;;4.20;63.50;;;;;;5015177;28;20038;-80
2022/03/26 02:37:22;;;;;;;19.10;12.05;;;4.20;64.30;;;;;;5034857;28;20030;-80
2022/03/26 02:39:49;;;;;;;15.18;12.70;;;4.10;64.50;;;;;;5020131;28;20041;-80
2022/03/26 02:42:16;;;;;;;23.98;11.73;;;4.00;65.10;;;;;;5041153;28;20038;-80
2022/03/26 02:44:42;;;;;;;13.35;11.85;;;3.90;65.50;;;;;;5036983;28;20045;-80
2022/03/26 02:47:12;;;;;;;17.98;12.35;;;3.70;66.10;;;;;;5037084;28;20041;-80
2022/03/26 02:49:39;;;;;;;18.17;12.40;;;3.60;66.80;;;;;;5030970;28;20411;-79
2022/03/26 02:52:06;;;;;;;16.08;12.40;;;3.60;66.90;;;;;;5031627;28;20041;-78
2022/03/26 02:54:33;;;;;;;13.70;11.00;;;3.50;67.20;;;;;;5028664;28;20033;-78
2022/03/26 02:56:59;;;;;;;16.83;12.93;;;3.60;67.30;;;;;;5024987;28;20029;-81
2022/03/26 02:59:25;;;;;;;25.98;12.75;;;3.60;67.40;;;;;;5028174;28;20442;-80
2022/03/26 03:01:52;;;;;;;19.35;12.63;;;3.60;68.00;;;;;;5028352;28;20042;-79
2022/03/26 03:04:20;;;;;;;16.48;12.55;;;3.50;68.10;;;;;;5029231;28;20042;-79
2022/03/26 03:06:48;;;;;;;18.15;13.32;;;3.30;68.20;;;;;;5020512;28;20029;-80
2022/03/26 03:09:14;;;;;;;21.85;11.77;;;3.20;68.20;;;;;;5023205;28;20037;-80
2022/03/26 03:11:41;;;;;;;15.73;12.18;;;3.20;68.80;;;;;;5029942;28;20034;-80
2022/03/26 03:14:08;;;;;;;19.55;13.93;;;3.10;69.40;;;;;;5019083;28;20030;-80
2022/03/26 03:16:34;;;;;;;15.65;12.80;;;3.10;69.60;;;;;;5019399;28;20606;-80
2022/03/26 03:19:01;;;;;;;17.85;13.10;;;3.10;69.60;;;;;;5032488;28;20042;-80
2022/03/26 03:21:27;;;;;;;15.88;13.23;;;3.10;69.50;;;;;;5020468;28;20041;-80
2022/03/26 03:23:53;;;;;;;17.15;12.07;;;3.10;69.70;;;;;;5028547;28;20034;-80
2022/03/26 03:26:19;;;;;;;17.75;12.93;;;3.00;69.80;;;;;;5020205;28;20038;-80
2022/03/26 03:28:46;;;;;;;19.45;13.20;;;3.00;70.30;;;;;;5019648;28;20391;-80
2022/03/26 03:31:13;;;;;;;19.02;11.93;;;2.90;70.90;;;;;;5013102;28;20033;-80
2022/03/26 03:33:39;;;;;;;16.42;12.60;;;2.80;70.90;;;;;;5022598;28;20048;-79
2022/03/26 03:36:05;;;;;;;20.35;12.88;;;2.80;70.80;;;;;;5019118;28;20033;-79
2022/03/26 03:38:32;;;;;;;11.77;10.63;;;2.60;70.70;;;;;;5031461;28;20033;-79
2022/03/26 03:40:58;;;;;;;14.93;12.50;;;2.50;71.70;;;;;;5015213;28;20136;-80
2022/03/26 03:43:25;;;;;;;19.52;13.82;;;2.40;71.70;;;;;;5024669;28;20046;-80
2022/03/26 03:45:51;;;;;;;19.10;12.82;;;2.30;72.20;;;;;;5022674;28;20140;-79
2022/03/26 03:48:17;;;;;;;16.08;13.32;;;2.20;72.50;;;;;;5005523;28;20040;-80
2022/03/26 03:50:46;;;;;;;15.57;12.70;;;2.10;73.40;;;;;;5028393;28;20470;-80
2022/03/26 03:53:12;;;;;;;17.85;13.98;;;2.00;74.00;;;;;;5025725;28;20037;-79
2022/03/26 03:55:39;;;;;;;21.00;14.65;;;2.10;74.30;;;;;;5028603;28;20375;-79
2022/03/26 03:58:05;;;;;;;19.60;13.05;;;2.10;73.60;;;;;;5021688;28;20101;-79
2022/03/26 04:00:31;;;;;;;19.75;13.55;;;2.00;73.40;;;;;;5014836;28;20026;-79
2022/03/26 04:02:57;;;;;;;16.85;12.80;;;1.90;73.50;;;;;;5028540;28;20030;-79
2022/03/26 04:05:23;;;;;;;18.10;13.13;;;1.90;74.20;;;;;;5012755;28;20033;-79
2022/03/26 04:07:50;;;;;;;23.10;12.70;;;1.90;74.90;;;;;;5028218;28;20025;-80
2022/03/26 04:10:16;;;;;;;18.42;13.10;;;2.00;75.30;;;;;;5014125;28;20030;-80
2022/03/26 04:12:43;;;;;;;14.95;12.45;;;2.10;75.60;;;;;;5014822;28;20046;-78
2022/03/26 04:15:11;;;;;;;23.67;13.88;;;2.00;75.60;;;;;;5013405;28;20037;-79
2022/03/26 04:17:38;;;;;;;17.20;13.80;;;2.00;76.30;;;;;;5025712;28;20049;-79
2022/03/26 04:20:08;;;;;;;15.65;12.77;;;2.00;76.70;;;;;;5013125;28;20033;-79
2022/03/26 04:22:35;;;;;;;15.32;13.82;;;1.90;76.40;;;;;;5022012;28;20034;-79
2022/03/26 04:25:03;;;;;;;15.57;14.00;;;1.90;76.60;;;;;;5026067;28;20034;-78
2022/03/26 04:27:29;;;;;;;17.65;13.98;;;1.90;76.50;;;;;;5024204;28;20029;-79
2022/03/26 04:29:55;;;;;;;17.20;13.27;;;2.00;76.10;;;;;;5018616;28;20029;-79
2022/03/26 04:32:22;;;;;;;18.95;13.43;;;1.90;76.30;;;;;;5029051;28;20052;-79
2022/03/26 04:34:48;;;;;;;15.40;13.75;;;1.80;76.70;;;;;;5024337;28;20052;-79
2022/03/26 04:37:14;;;;;;;21.08;14.25;;;1.70;77.00;;;;;;5013456;28;20034;-79
2022/03/26 04:39:41;;;;;;;17.27;14.48;;;1.70;77.80;;;;;;5025031;28;20140;-78
2022/03/26 04:42:08;;;;;;;16.30;13.45;;;1.70;77.50;;;;;;5038675;28;20040;-78
2022/03/26 04:44:34;;;;;;;14.93;13.32;;;1.70;77.50;;;;;;5020813;28;20038;-79
2022/03/26 04:47:01;;;;;;;17.35;13.40;;;1.70;77.70;;;;;;5013439;28;20045;-78
2022/03/26 04:49:27;;;;;;;14.98;13.52;;;1.70;78.10;;;;;;5011778;28;20034;-79
2022/03/26 04:51:54;;;;;;;17.60;13.40;;;1.60;78.10;;;;;;5015732;28;20032;-78
2022/03/26 04:54:20;;;;;;;18.27;14.93;;;1.70;78.50;;;;;;5027008;28;20042;-79
2022/03/26 04:56:46;;;;;;;18.90;16.08;;;1.70;78.60;;;;;;5027990;28;20037;-78
2022/03/26 04:59:12;;;;;;;13.65;12.35;;;1.70;78.40;;;;;;5015724;28;20029;-78
2022/03/26 05:01:38;;;;;;;15.68;14.07;;;1.70;78.30;;;;;;5026391;28;20030;-79
2022/03/26 05:04:05;;;;;;;17.70;14.90;;;1.60;78.50;;;;;;5029034;28;20044;-79
2022/03/26 05:06:31;;;;;;;19.67;14.55;;;1.60;79.30;;;;;;5030904;28;20048;-79
2022/03/26 05:08:57;;;;;;;15.10;13.52;;;1.60;78.80;;;;;;5025326;28;20030;-79
2022/03/26 05:11:24;;;;;;;31.23;14.98;;;1.60;78.90;;;;;;5027621;28;20037;-79
2022/03/26 05:13:50;;;;;;;16.77;13.80;;;1.60;79.10;;;;;;5026359;28;20041;-78
2022/03/26 05:16:16;;;;;;;24.23;14.57;;;1.50;79.60;;;;;;5029064;28;20418;-80
2022/03/26 05:18:42;;;;;;;17.70;13.93;;;1.50;80.00;;;;;;5025731;28;20048;-77
2022/03/26 05:21:09;;;;;;;16.95;14.90;;;1.60;80.20;;;;;;5025962;28;20089;-79
2022/03/26 05:23:35;;;;;;;21.42;14.43;;;1.60;80.00;;;;;;5023767;28;20113;-79
2022/03/26 05:26:03;;;;;;;18.15;14.23;;;1.60;80.10;;;;;;5027239;28;20038;-80
2022/03/26 05:28:29;;;;;;;25.88;13.10;;;1.60;80.40;;;;;;5024038;28;20049;-79
2022/03/26 05:30:56;;;;;;;17.63;14.75;;;1.60;80.40;;;;;;5011613;28;20392;-80
2022/03/26 05:33:22;;;;;;;17.17;14.93;;;1.60;80.40;;;;;;5027249;28;20471;-79
2022/03/26 05:35:49;;;;;;;19.92;14.23;;;1.60;80.50;;;;;;5027069;28;20391;-78
2022/03/26 05:38:15;;;;;;;19.20;14.57;;;1.60;80.40;;;;;;5027241;28;20030;-79
2022/03/26 05:40:41;;;;;;;22.83;13.98;;;1.60;80.90;;;;;;5026604;28;20026;-79
2022/03/26 05:43:08;;;;;;;18.08;14.32;;;1.70;81.00;;;;;;5023585;28;20041;-78
2022/03/26 05:45:34;;;;;;;22.85;14.00;;;1.80;80.80;;;;;;5027783;28;20034;-78
2022/03/26 05:48:07;;;;;;;16.17;14.18;;;1.90;80.40;;;;;;5028234;28;20038;-79
2022/03/26 05:50:34;;;;;;;15.85;14.13;;;1.90;81.00;;;;;;5012724;28;20041;-79
2022/03/26 05:53:02;;;;;;;26.52;14.82;;;2.00;80.40;;;;;;5021797;28;20038;-78
2022/03/26 05:55:28;;;;;;;30.02;15.32;;;2.10;79.70;;;;;;5027919;28;20025;-79
2022/03/26 05:57:55;;;;;;;25.30;15.63;;;2.50;79.10;;;;;;5027214;28;20029;-78
2022/03/26 06:00:21;;;;;;;22.02;16.27;;;3.10;76.50;;;;;;5020899;28;20037;-79
2022/03/26 06:02:47;;;;;;;19.08;14.82;;;3.60;73.60;;;;;;5012369;28;20037;-79
2022/03/26 06:05:14;;;;;;;15.38;13.32;;;4.10;71.60;;;;;;5026605;28;20510;-78
2022/03/26 06:07:40;;;;;;;24.55;13.93;;;4.70;69.20;;;;;;5027979;28;20374;-79
2022/03/26 06:10:07;;;;;;;19.48;13.15;;;5.30;66.80;;;;;;5025414;28;20034;-80
2022/03/26 06:12:35;;;;;;;18.45;12.38;;;5.70;65.50;;;;;;5018832;28;20045;-79
2022/03/26 06:15:03;;;;;;;14.85;12.95;;;6.30;64.40;;;;;;5023743;28;20041;-79
2022/03/26 06:17:29;;;;;;;16.83;13.48;;;6.50;62.00;;;;;;5016107;28;20045;-79
2022/03/26 06:19:55;;;;;;;20.95;13.15;;;6.70;61.70;;;;;;5019683;28;20057;-79
2022/03/26 06:22:22;;;;;;;18.95;12.43;;;6.90;60.50;;;;;;5014192;28;20026;-79
2022/03/26 06:24:48;;;;;;;15.27;12.43;;;7.20;60.90;;;;;;5024407;28;20057;-80
2022/03/26 06:27:15;;;;;;;20.38;13.63;;;7.80;58.70;;;;;;5021486;28;20025;-77
2022/03/26 06:29:41;;;;;;;24.58;12.38;;;8.20;57.60;;;;;;5029590;28;20033;-78
2022/03/26 06:32:08;;;;;;;18.52;12.75;;;8.20;57.40;;;;;;5027442;28;20049;-77
2022/03/26 06:34:34;;;;;;;24.38;14.15;;;8.20;57.60;;;;;;5020679;28;20053;-75
2022/03/26 06:37:00;;;;;;;20.13;13.02;;;8.20;57.20;;;;;;5041918;28;20049;-77
2022/03/26 06:39:26;;;;;;;18.15;12.75;;;8.40;57.00;;;;;;5026895;28;20025;-77
2022/03/26 06:41:53;;;;;;;14.65;12.23;;;8.60;57.10;;;;;;5031820;28;20033;-76
2022/03/26 06:44:19;;;;;;;15.88;12.77;;;8.80;56.10;;;;;;5029618;28;20060;-77
2022/03/26 06:46:45;;;;;;;16.15;12.65;;;8.60;56.30;;;;;;5025289;28;20364;-78
2022/03/26 06:49:11;;;;;;;18.75;13.80;;;8.40;56.90;;;;;;5027549;28;20493;-77
2022/03/26 06:51:38;;;;;;;19.73;13.60;;;8.50;56.90;;;;;;5026172;28;20386;-76
2022/03/26 06:54:05;;;;;;;18.17;14.05;;;8.40;57.30;;;;;;5031285;28;20406;-76
2022/03/26 06:56:31;;;;;;;17.63;12.77;;;8.60;57.00;;;;;;5030465;28;20034;-77
2022/03/26 06:58:57;;;;;;;15.40;13.07;;;8.50;56.90;;;;;;5028278;28;20390;-77
2022/03/26 07:01:24;;;;;;;16.92;12.63;;;8.80;56.40;;;;;;5027139;28;20030;-77
2022/03/26 07:03:57;;;;;;;22.92;12.25;;;9.10;55.40;;;;;;5031756;28;20044;-77
2022/03/26 07:06:24;;;;;;;20.38;13.07;;;9.60;54.50;;;;;;5021755;28;20052;-76
2022/03/26 07:08:50;;;;;;;18.10;12.55;;;10.00;53.60;;;;;;5020258;28;20038;-75
2022/03/26 07:11:16;;;;;;;17.38;12.88;;;10.20;53.90;;;;;;5024473;28;20040;-77
2022/03/26 07:13:43;;;;;;;19.80;14.00;;;10.40;53.10;;;;;;5024913;28;20041;-76
2022/03/26 07:16:09;;;;;;;19.75;13.13;;;10.40;52.70;;;;;;5018701;28;20052;-74
2022/03/26 07:18:36;;;;;;;21.33;13.27;;;10.70;52.70;;;;;;5028988;28;20524;-74
2022/03/26 07:21:02;;;;;;;22.42;13.60;;;10.70;52.20;;;;;;5016839;28;20029;-76
2022/03/26 07:23:28;;;;;;;17.60;13.90;;;10.60;52.20;;;;;;5023450;28;20347;-76
2022/03/26 07:25:55;;;;;;;32.92;14.00;;;10.90;51.80;;;;;;5031916;23;20061;-75
2022/03/26 07:28:22;;;;;;;22.00;14.15;;;10.80;51.50;;;;;;5032529;28;20092;-79
2022/03/26 07:30:48;;;;;;;20.08;12.43;;;10.50;52.30;;;;;;5011831;28;20044;-77
2022/03/26 07:33:14;;;;;;;17.60;13.73;;;10.50;52.60;;;;;;5033622;28;20040;-78
2022/03/26 07:35:41;;;;;;;15.88;11.82;;;10.70;52.50;;;;;;5032473;28;20048;-77
2022/03/26 07:38:07;;;;;;;23.45;15.27;;;10.70;52.20;;;;;;5033471;28;20034;-77
2022/03/26 07:40:33;;;;;;;29.10;14.32;;;10.90;52.10;;;;;;5031956;28;20038;-77
2022/03/26 07:42:59;;;;;;;20.55;14.02;;;10.70;53.10;;;;;;5033295;28;20049;-76
2022/03/26 07:45:26;;;;;;;16.10;13.63;;;11.10;52.50;;;;;;5032801;28;20112;-77
2022/03/26 07:47:52;;;;;;;20.25;13.50;;;11.50;51.40;;;;;;5029276;28;20033;-77
2022/03/26 07:50:18;;;;;;;22.17;14.23;;;11.30;51.70;;;;;;5031117;28;20391;-78
2022/03/26 07:52:45;;;;;;;17.67;13.25;;;11.50;51.40;;;;;;5029843;28;20033;-77
2022/03/26 07:55:11;;;;;;;26.02;15.20;;;11.50;51.50;;;;;;5032774;28;20409;-76
2022/03/26 07:57:38;;;;;;;18.08;13.07;;;11.60;51.60;;;;;;5032627;28;20029;-77
2022/03/26 08:00:07;;;;;;;20.80;14.45;;;12.00;51.50;;;;;;5030968;28;20038;-77
2022/03/26 08:02:39;;;;;;;21.85;14.52;;;12.30;51.60;;;;;;5030629;28;20045;-76
2022/03/26 08:05:06;;;;;;;17.38;14.55;;;12.40;51.10;;;;;;5030766;28;20483;-77
2022/03/26 08:07:32;;;;;;;21.27;14.25;;;12.90;50.40;;;;;;5031330;28;20026;-77
2022/03/26 08:09:58;;;;;;;20.33;14.50;;;12.70;50.50;;;;;;5013218;28;20048;-77
2022/03/26 08:12:25;;;;;;;22.48;15.88;;;13.00;49.50;;;;;;5032201;28;20037;-77
2022/03/26 08:14:51;;;;;;;23.05;15.27;;;13.60;48.50;;;;;;5029281;28;20413;-77
2022/03/26 08:17:17;;;;;;;21.75;15.60;;;13.70;48.00;;;;;;5029645;28;20030;-80
2022/03/26 08:19:43;;;;;;;23.30;15.55;;;14.30;47.30;;;;;;5026260;28;20470;-77
2022/03/26 08:22:10;;;;;;;21.75;14.32;;;14.70;47.10;;;;;;5031937;28;20052;-78
2022/03/26 08:24:36;;;;;;;25.38;14.95;;;15.00;46.50;;;;;;5031844;28;20551;-78
2022/03/26 08:27:03;;;;;;;25.20;14.55;;;15.10;45.60;;;;;;5024713;28;20045;-78
2022/03/26 08:29:30;;;;;;;21.25;14.75;;;15.30;45.40;;;;;;5024107;28;20426;-78
2022/03/26 08:31:56;;;;;;;19.48;14.65;;;14.50;46.70;;;;;;5031366;28;20376;-78
2022/03/26 08:34:22;;;;;;;19.83;13.93;;;14.70;46.80;;;;;;5025672;28;20056;-78
2022/03/26 08:36:48;;;;;;;20.48;14.38;;;15.30;46.60;;;;;;5027040;28;20025;-78
2022/03/26 08:39:15;;;;;;;24.67;15.70;;;15.70;44.80;;;;;;5021304;28;20040;-79
2022/03/26 08:41:41;;;;;;;20.02;14.02;;;16.70;43.50;;;;;;5026342;28;20029;-77
2022/03/26 08:44:08;;;;;;;18.95;14.10;;;16.60;44.30;;;;;;5007006;28;20064;-78
2022/03/26 08:46:34;;;;;;;25.10;15.48;;;16.00;45.10;;;;;;5028289;28;20418;-78
2022/03/26 08:49:00;;;;;;;26.50;15.25;;;16.00;45.10;;;;;;5031235;28;20371;-79
2022/03/26 08:51:27;;;;;;;25.63;16.30;;;16.40;44.20;;;;;;5030394;28;20025;-79
2022/03/26 08:53:53;;;;;;;17.27;15.35;;;16.20;44.10;;;;;;5025066;28;20470;-80
2022/03/26 08:56:19;;;;;;;18.83;14.88;;;15.10;44.80;;;;;;5030603;28;20037;-80
2022/03/26 08:58:45;;;;;;;20.38;14.55;;;14.90;45.60;;;;;;5031719;28;20029;-78
2022/03/26 09:01:12;;;;;;;21.92;14.60;;;15.30;46.20;;;;;;5013210;28;20041;-82
2022/03/26 09:03:40;;;;;;;20.98;15.68;;;15.30;46.00;;;;;;5012064;28;20583;-79
2022/03/26 09:06:07;;;;;;;20.75;16.30;;;15.80;45.30;;;;;;5031645;28;20083;-77
2022/03/26 09:08:34;;;;;;;20.38;15.30;;;16.70;44.30;;;;;;5028146;28;20021;-77
2022/03/26 09:11:02;;;;;;;22.23;15.32;;;16.70;43.20;;;;;;5011081;28;20048;-78
2022/03/26 09:13:28;;;;;;;21.80;15.48;;;17.10;42.70;;;;;;5026388;28;20034;-78
2022/03/26 09:15:54;;;;;;;26.77;15.98;;;16.60;43.90;;;;;;5013392;28;20045;-79
2022/03/26 09:18:22;;;;;;;22.92;14.68;;;16.30;44.40;;;;;;5030690;28;20041;-79
2022/03/26 09:20:48;;;;;;;21.60;16.67;;;16.40;45.20;;;;;;4994418;28;20056;-78
2022/03/26 09:23:15;;;;;;;28.70;17.67;;;16.00;45.20;;;;;;5031748;28;20041;-78
2022/03/26 09:25:44;;;;;;;34.63;15.32;;;16.00;45.50;;;;;;5031033;28;20056;-78
2022/03/26 09:28:10;;;;;;;18.80;15.75;;;16.90;44.50;;;;;;5031186;28;20034;-77
2022/03/26 09:30:37;;;;;;;22.58;16.20;;;17.30;45.00;;;;;;5028896;28;20029;-78
2022/03/26 09:33:03;;;;;;;20.88;15.50;;;17.50;43.70;;;;;;5023943;28;20030;-81
2022/03/26 09:35:30;;;;;;;18.95;14.77;;;17.20;43.00;;;;;;5026125;28;20026;-76
2022/03/26 09:37:56;;;;;;;24.63;15.73;;;17.90;42.20;;;;;;5009108;28;20026;-77
2022/03/26 09:40:24;;;;;;;20.05;16.35;;;17.10;42.90;;;;;;5029322;28;20046;-77
2022/03/26 09:42:51;;;;;;;19.33;16.05;;;18.40;41.70;;;;;;5031317;28;20037;-77
2022/03/26 09:45:18;;;;;;;26.77;17.13;;;17.90;41.80;;;;;;5026660;28;20049;-79
2022/03/26 09:47:44;;;;;;;29.67;17.25;;;17.00;42.70;;;;;;5029416;28;20041;-77
2022/03/26 09:50:12;;;;;;;25.75;16.55;;;17.20;42.10;;;;;;5026175;28;20034;-77
2022/03/26 09:52:39;;;;;;;22.05;17.77;;;17.00;42.50;;;;;;5031111;28;20040;-78
2022/03/26 09:55:06;;;;;;;25.00;16.52;;;16.20;43.40;;;;;;5017181;28;20406;-78
2022/03/26 09:57:32;;;;;;;20.17;16.95;;;16.10;43.70;;;;;;5015878;28;20041;-78
2022/03/26 09:59:58;;;;;;;25.05;16.67;;;16.30;43.80;;;;;;5029766;28;20025;-80
2022/03/26 10:02:25;;;;;;;23.58;17.02;;;16.00;43.90;;;;;;5034111;28;20029;-80
2022/03/26 10:04:52;;;;;;;24.58;17.05;;;16.00;43.90;;;;;;5034761;28;20041;-77
2022/03/26 10:07:30;;;;;;;30.40;17.73;;;15.90;44.20;;;;;;5034571;28;20033;-79
2022/03/26 10:09:56;;;;;;;24.35;18.02;;;15.80;44.40;;;;;;5027018;28;20033;-76
2022/03/26 10:12:27;;;;;;;24.90;16.05;;;15.80;44.50;;;;;;5034201;28;20036;-76
2022/03/26 10:14:58;;;;;;;27.75;17.40;;;15.70;44.70;;;;;;5028351;28;20037;-77
2022/03/26 10:17:30;;;;;;;20.67;17.08;;;15.70;44.40;;;;;;5007114;28;20049;-77
2022/03/26 10:20:04;;;;;;;21.70;15.90;;;15.90;44.60;;;;;;5025995;28;20048;-76
2022/03/26 10:22:30;;;;;;;21.92;16.38;;;16.00;44.20;;;;;;5033501;28;20029;-75
2022/03/26 10:24:59;;;;;;;20.42;16.92;;;16.10;43.10;;;;;;5032269;28;20495;-76
2022/03/26 10:27:25;;;;;;;16.55;14.73;;;16.30;43.30;;;;;;5028242;28;20041;-76
2022/03/26 10:29:58;;;;;;;29.73;16.45;;;16.40;43.10;;;;;;5014880;28;20049;-76
2022/03/26 10:32:39;;;;;;;21.52;15.00;;;16.60;42.80;;;;;;5031474;28;20040;-77
2022/03/26 10:35:07;;;;;;;22.48;15.07;;;16.40;43.20;;;;;;5032800;28;20037;-76
2022/03/26 10:37:59;;;;;;;20.42;15.48;;;16.40;44.10;;;;;;5034109;28;20030;-76
2022/03/26 10:40:34;;;;;;;22.90;14.85;;;16.70;43.60;;;;;;5032304;28;20037;-76
2022/03/26 10:43:11;;;;;;;25.98;16.10;;;16.90;41.10;;;;;;5009732;28;20049;-75
2022/03/26 10:45:53;;;;;;;20.00;14.23;;;17.10;41.00;;;;;;5033826;28;20060;-80
2022/03/26 10:48:28;;;;;;;20.52;13.70;;;17.20;39.50;;;;;;5033943;28;20044;-79
2022/03/26 10:50:56;;;;;;;18.48;14.45;;;17.00;39.40;;;;;;5015264;28;20033;-76
2022/03/26 10:53:31;;;;;;;17.35;14.45;;;17.10;39.40;;;;;;5031778;28;20033;-78
2022/03/26 10:55:59;;;;;;;16.67;14.40;;;17.10;39.10;;;;;;5017482;28;20038;-78
2022/03/26 10:58:26;;;;;;;21.98;13.57;;;17.50;38.00;;;;;;5034223;28;20037;-76
2022/03/26 11:00:53;;;;;;;19.92;13.52;;;17.60;37.30;;;;;;5034211;28;20041;-77
2022/03/26 11:03:20;;;;;;;20.10;14.32;;;17.70;37.90;;;;;;5029389;28;20386;-78
2022/03/26 11:05:48;;;;;;;27.13;15.02;;;17.80;37.50;;;;;;5030861;28;20048;-76
2022/03/26 11:08:17;;;;;;;28.52;15.35;;;17.80;37.40;;;;;;5031421;28;20479;-75
2022/03/26 11:10:43;;;;;;;21.63;14.30;;;17.70;37.10;;;;;;5033371;28;20028;-76
2022/03/26 11:13:12;;;;;;;23.50;13.35;;;17.50;37.10;;;;;;5015076;28;20056;-76
2022/03/26 11:15:52;;;;;;;26.80;14.50;;;17.80;37.00;;;;;;5035251;28;20037;-76
2022/03/26 11:18:21;;;;;;;28.23;14.65;;;17.90;37.50;;;;;;5028136;28;20037;-75
2022/03/26 11:20:54;;;;;;;21.73;14.25;;;18.00;36.60;;;;;;5035030;28;20025;-75
2022/03/26 11:24:00;;;;;;;22.15;13.65;;;17.60;36.90;;;;;;5036898;28;20037;-76
2022/03/26 11:26:41;;;;;;;20.92;12.23;;;17.80;37.10;;;;;;5036091;28;20053;-76
2022/03/26 11:29:13;;;;;;;21.48;15.35;;;17.70;36.90;;;;;;5043963;28;20029;-78
2022/03/26 11:31:48;;;;;;;20.67;15.98;;;17.70;36.60;;;;;;5041782;28;20106;-78
2022/03/26 11:34:18;;;;;;;18.45;12.82;;;17.70;36.30;;;;;;5034760;28;20040;-80
2022/03/26 11:36:44;;;;;;;34.33;20.40;;;18.00;36.20;;;;;;5010592;28;20094;-76
2022/03/26 11:39:14;;;;;;;19.08;13.15;;;17.70;35.20;;;;;;5025310;28;20048;-77
2022/03/26 11:41:42;;;;;;;37.70;28.30;;;17.60;35.60;;;;;;5026876;28;20651;-76
2022/03/26 11:44:09;;;;;;;19.33;12.00;;;18.00;36.00;;;;;;5029309;28;20368;-75
2022/03/26 11:52:23;;;;;;;21.38;12.60;;;18.20;35.20;;;;;;5033695;28;20038;-77
2022/03/26 11:54:57;;;;;;;23.60;12.02;;;18.30;35.00;;;;;;5033473;28;20036;-77
2022/03/26 11:57:25;;;;;;;36.33;27.52;;;17.90;35.00;;;;;;5032651;28;20506;-77
2022/03/26 11:59:52;;;;;;;24.02;19.60;;;17.60;35.30;;;;;;5028961;28;20040;-77
2022/03/26 12:02:26;;;;;;;24.08;17.27;;;17.80;35.40;;;;;;5031575;28;20037;-76
2022/03/26 12:04:53;;;;;;;16.13;11.23;;;18.00;34.90;;;;;;5029984;28;20049;-76
2022/03/26 12:07:26;;;;;;;13.35;10.65;;;18.20;34.90;;;;;;5032974;28;20029;-77
2022/03/26 12:10:09;;;;;;;16.48;12.27;;;18.20;34.90;;;;;;5031566;28;20467;-75
2022/03/26 12:12:49;;;;;;;16.98;10.50;;;18.20;34.50;;;;;;5031974;28;20038;-76
2022/03/26 12:15:16;;;;;;;19.67;11.05;;;17.90;34.40;;;;;;5027674;28;20038;-77
2022/03/26 12:17:46;;;;;;;14.20;10.95;;;18.10;34.00;;;;;;5030188;28;20025;-76
2022/03/26 12:20:31;;;;;;;16.48;12.20;;;18.20;34.10;;;;;;5031940;28;20032;-76
2022/03/26 12:23:11;;;;;;;13.60;10.55;;;18.00;33.90;;;;;;5014300;28;20044;-76
2022/03/26 12:25:48;;;;;;;21.20;13.15;;;18.10;34.10;;;;;;5031807;28;20068;-76
2022/03/26 12:28:25;;;;;;;19.25;11.57;;;18.00;34.20;;;;;;5011901;28;20045;-76
2022/03/26 12:30:53;;;;;;;14.35;11.23;;;18.10;34.40;;;;;;5020578;28;20037;-77
2022/03/26 12:33:21;;;;;;;16.63;11.02;;;18.10;34.60;;;;;;5031835;28;20038;-76
2022/03/26 12:35:50;;;;;;;15.98;10.25;;;18.20;35.00;;;;;;5031820;28;20046;-75
2022/03/26 12:38:18;;;;;;;15.48;10.27;;;18.50;34.50;;;;;;5027844;28;20029;-76
2022/03/26 12:41:08;;;;;;;11.40;9.95;;;18.30;33.10;;;;;;5030844;28;20056;-78